createdAt,value
2022-09-15T00:00:39.283Z,12.89
2022-09-15T00:03:24.385Z,12.87
2022-09-15T00:06:09.960Z,12.85
2022-09-15T00:08:55.189Z,12.84
2022-09-15T00:11:40.252Z,12.82
2022-09-15T00:14:25.212Z,12.85
2022-09-15T00:17:10.327Z,12.84
2022-09-15T00:19:57.800Z,12.84
2022-09-15T00:22:43.376Z,12.83
2022-09-15T00:25:28.188Z,12.83
2022-09-15T00:28:15.247Z,12.82
2022-09-15T00:31:00.094Z,12.80
2022-09-15T00:33:50.255Z,12.79
2022-09-15T00:36:35.103Z,12.76
2022-09-15T00:39:20.121Z,12.74
2022-09-15T00:42:05.252Z,12.74
2022-09-15T00:44:56.361Z,12.77
2022-09-15T00:47:41.486Z,12.77
2022-09-15T00:50:26.602Z,12.81
2022-09-15T00:53:12.950Z,12.85
2022-09-15T00:55:59.810Z,12.89
2022-09-15T00:58:56.867Z,12.92
2022-09-15T01:01:44.290Z,12.95
2022-09-15T01:04:29.596Z,12.97
2022-09-15T01:07:18.348Z,13.02
2022-09-15T01:10:28.947Z,13.03
2022-09-15T01:13:14.659Z,13.04
2022-09-15T01:19:21.403Z,13.00
2022-09-15T01:22:05.999Z,12.96
2022-09-15T01:25:00.188Z,12.93
2022-09-15T01:28:03.407Z,12.92
2022-09-15T01:31:17.297Z,12.92
2022-09-15T01:34:08.858Z,12.94
2022-09-15T01:37:02.713Z,12.96
2022-09-15T01:39:52.197Z,12.97
2022-09-15T01:42:37.891Z,12.98
2022-09-15T01:45:30.458Z,12.98
2022-09-15T01:48:17.804Z,12.98
2022-09-15T01:51:05.544Z,12.94
2022-09-15T01:53:52.378Z,12.95
2022-09-15T01:56:38.962Z,12.96
2022-09-15T01:59:24.670Z,12.94
2022-09-15T02:02:22.409Z,12.92
2022-09-15T02:05:17.538Z,12.91
2022-09-15T02:08:04.922Z,12.88
2022-09-15T02:11:04.598Z,12.85
2022-09-15T02:14:05.586Z,12.83
2022-09-15T02:16:53.422Z,12.82
2022-09-15T02:19:41.192Z,12.79
2022-09-15T02:22:32.156Z,12.78
2022-09-15T02:25:24.797Z,12.77
2022-09-15T02:28:11.889Z,12.75
2022-09-15T02:30:58.767Z,12.75
2022-09-15T02:34:10.302Z,12.72
2022-09-15T02:36:56.586Z,12.75
2022-09-15T02:39:48.692Z,12.76
2022-09-15T02:42:33.887Z,12.77
2022-09-15T02:45:19.612Z,12.78
2022-09-15T02:48:08.686Z,12.80
2022-09-15T02:50:53.176Z,12.79
2022-09-15T02:53:38.249Z,12.79
2022-09-15T02:56:23.354Z,12.80
2022-09-15T02:59:08.488Z,12.80
2022-09-15T03:01:53.582Z,12.78
2022-09-15T03:04:38.382Z,12.80
2022-09-15T03:07:24.341Z,12.82
2022-09-15T03:10:11.505Z,12.83
2022-09-15T03:12:56.068Z,12.82
2022-09-15T03:15:41.176Z,12.82
2022-09-15T03:18:26.149Z,12.82
2022-09-15T03:21:13.441Z,12.81
2022-09-15T03:23:58.331Z,12.79
2022-09-15T03:26:43.095Z,12.78
2022-09-15T03:29:28.090Z,12.76
2022-09-15T03:32:13.416Z,12.76
2022-09-15T03:34:58.662Z,12.75
2022-09-15T03:37:43.383Z,12.75
2022-09-15T03:40:28.553Z,12.75
2022-09-15T03:43:18.520Z,12.75
2022-09-15T03:46:05.850Z,12.76
2022-09-15T03:48:50.867Z,12.77
2022-09-15T03:51:35.883Z,12.78
2022-09-15T03:54:20.961Z,12.79
2022-09-15T03:57:06.034Z,12.80
2022-09-15T03:59:50.944Z,12.78
2022-09-15T04:02:35.903Z,12.78
2022-09-15T04:05:20.849Z,12.78
2022-09-15T04:08:05.726Z,12.79
2022-09-15T04:10:50.669Z,12.80
2022-09-15T04:13:37.312Z,12.82
2022-09-15T04:16:23.959Z,12.86
2022-09-15T04:19:08.827Z,12.86
2022-09-15T04:21:53.775Z,12.90
2022-09-15T04:24:38.872Z,12.94
2022-09-15T04:27:23.911Z,12.96
2022-09-15T04:30:09.404Z,12.98
2022-09-15T04:32:54.246Z,13.01
2022-09-15T04:35:39.482Z,13.03
2022-09-15T04:38:24.431Z,13.10
2022-09-15T04:41:10.173Z,13.15
2022-09-15T04:43:55.244Z,13.22
2022-09-15T04:46:40.182Z,13.27
2022-09-15T04:49:25.083Z,13.31
2022-09-15T04:52:09.969Z,13.31
2022-09-15T04:54:55.069Z,13.32
2022-09-15T04:57:39.975Z,13.32
2022-09-15T05:00:26.356Z,13.32
2022-09-15T05:03:13.963Z,13.35
2022-09-15T05:05:58.934Z,13.38
2022-09-15T05:08:52.174Z,13.45
2022-09-15T05:11:38.046Z,13.49
2022-09-15T05:14:22.804Z,13.56
2022-09-15T05:17:08.104Z,13.62
2022-09-15T05:19:54.032Z,13.64
2022-09-15T05:22:41.867Z,13.64
2022-09-15T05:25:27.721Z,13.65
2022-09-15T05:28:15.645Z,13.69
2022-09-15T05:31:02.815Z,13.72
2022-09-15T05:33:50.055Z,13.76
2022-09-15T05:36:35.782Z,13.80
2022-09-15T05:39:21.229Z,13.87
2022-09-15T05:42:09.900Z,13.92
2022-09-15T05:44:56.017Z,13.99
2022-09-15T05:47:41.007Z,14.09
2022-09-15T05:50:26.062Z,14.18
2022-09-15T05:53:11.035Z,14.25
2022-09-15T05:55:57.802Z,14.30
2022-09-15T05:58:56.525Z,14.32
2022-09-15T06:01:42.676Z,14.40
2022-09-15T06:04:27.738Z,14.45
2022-09-15T06:07:12.664Z,14.53
2022-09-15T06:09:57.567Z,14.61
2022-09-15T06:12:42.428Z,14.67
2022-09-15T06:15:27.389Z,14.69
2022-09-15T06:18:12.662Z,14.75
2022-09-15T06:21:04.079Z,14.81
2022-09-15T06:24:00.835Z,14.87
2022-09-15T06:26:48.413Z,14.89
2022-09-15T06:29:33.489Z,14.94
2022-09-15T06:32:18.652Z,15.09
2022-09-15T06:35:06.729Z,15.24
2022-09-15T06:37:56.174Z,15.38
2022-09-15T06:41:10.116Z,15.54
2022-09-15T06:48:24.813Z,15.90
2022-09-15T07:13:25.150Z,16.32
2022-09-15T07:17:00.570Z,16.48
2022-09-15T07:19:51.668Z,16.54
2022-09-15T07:22:36.589Z,16.62
2022-09-15T07:25:30.529Z,16.72
2022-09-15T07:28:41.295Z,16.81
2022-09-15T07:31:29.317Z,16.77
2022-09-15T07:34:15.427Z,16.74
2022-09-15T07:37:00.178Z,16.80
2022-09-15T07:39:45.826Z,16.83
2022-09-15T07:42:35.278Z,16.79
2022-09-15T07:45:21.558Z,16.81
2022-09-15T07:48:06.442Z,16.83
2022-09-15T07:50:51.621Z,16.74
2022-09-15T07:53:36.732Z,16.51
2022-09-15T07:56:22.768Z,16.35
2022-09-15T07:59:07.603Z,16.34
2022-09-15T08:01:52.637Z,16.29
2022-09-15T08:04:37.362Z,16.23
2022-09-15T08:07:22.576Z,16.19
2022-09-15T08:10:09.318Z,16.13
2022-09-15T08:12:58.533Z,16.18
2022-09-15T08:15:44.670Z,16.18
2022-09-15T08:18:29.607Z,16.26
2022-09-15T08:21:23.175Z,16.35
2022-09-15T08:24:12.900Z,16.51
2022-09-15T08:26:57.684Z,16.73
2022-09-15T08:29:43.925Z,16.87
2022-09-15T08:32:29.298Z,16.96
2022-09-15T08:35:16.306Z,17.08
2022-09-15T08:38:02.415Z,17.33
2022-09-15T08:40:47.663Z,17.50
2022-09-15T08:43:45.698Z,17.73
2022-09-15T08:46:42.368Z,17.94
2022-09-15T08:49:51.535Z,18.20
2022-09-15T08:53:01.266Z,18.51
2022-09-15T08:55:55.144Z,18.89
2022-09-15T08:58:40.294Z,19.56
2022-09-15T09:02:06.835Z,20.14
2022-09-15T09:05:29.587Z,20.40
2022-09-15T09:08:52.907Z,20.28
2022-09-15T09:12:22.294Z,20.03
2022-09-15T09:15:42.817Z,19.91
2022-09-15T09:19:03.264Z,19.71
2022-09-15T09:22:05.742Z,19.25
2022-09-15T09:24:53.874Z,19.00
2022-09-15T09:27:40.782Z,18.93
2022-09-15T09:30:29.045Z,18.80
2022-09-15T09:33:38.699Z,18.61
2022-09-15T09:36:25.301Z,18.53
2022-09-15T09:39:14.672Z,18.54
2022-09-15T09:42:01.696Z,18.47
2022-09-15T09:44:46.932Z,18.37
2022-09-15T09:47:36.085Z,18.36
2022-09-15T09:50:38.147Z,18.24
2022-09-15T09:53:32.039Z,18.14
2022-09-15T10:00:40.089Z,18.13
2022-09-15T10:07:24.181Z,18.16
2022-09-15T10:10:22.482Z,18.09
2022-09-15T10:13:10.754Z,18.00
2022-09-15T10:15:59.759Z,17.86
2022-09-15T10:18:45.055Z,17.68
2022-09-15T10:21:29.890Z,17.51
2022-09-15T10:24:44.144Z,17.36
2022-09-15T10:27:34.127Z,17.22
2022-09-15T10:30:19.385Z,17.14
2022-09-15T10:33:24.918Z,17.10
2022-09-15T10:36:30.306Z,17.11
2022-09-15T10:44:01.557Z,17.04
2022-09-15T10:47:07.827Z,17.06
2022-09-15T10:50:25.239Z,17.11
2022-09-15T10:53:52.774Z,17.17
2022-09-15T10:56:43.562Z,17.24
2022-09-15T11:03:26.814Z,17.16
2022-09-15T11:06:22.507Z,17.05
2022-09-15T11:09:17.247Z,16.97
2022-09-15T11:12:34.943Z,16.83
2022-09-15T11:16:01.918Z,16.80
2022-09-15T11:18:49.578Z,16.80
2022-09-15T11:21:51.516Z,16.74
2022-09-15T11:25:23.999Z,16.72
2022-09-15T11:28:35.228Z,16.76
2022-09-15T11:31:48.784Z,16.82
2022-09-15T11:34:46.478Z,16.85
2022-09-15T11:40:38.814Z,16.80
2022-09-15T11:43:49.847Z,16.80
2022-09-15T11:46:45.159Z,16.81
2022-09-15T11:50:18.366Z,16.78
2022-09-15T11:53:11.662Z,16.72
2022-09-15T11:56:09.147Z,16.66
2022-09-15T11:59:32.815Z,16.63
2022-09-15T12:02:45.544Z,16.57
2022-09-15T12:05:48.626Z,16.53
2022-09-15T12:09:00.225Z,16.59
2022-09-15T12:11:49.167Z,16.58
2022-09-15T12:14:44.083Z,16.59
2022-09-15T12:18:06.570Z,16.61
2022-09-15T12:21:30.955Z,16.63
2022-09-15T12:24:45.276Z,16.59
2022-09-15T12:27:30.936Z,16.57
2022-09-15T12:30:39.781Z,16.63
2022-09-15T12:33:42.895Z,16.66
2022-09-15T12:36:30.955Z,16.74
2022-09-15T12:39:29.029Z,16.76
2022-09-15T12:42:27.274Z,16.79
2022-09-15T12:45:31.198Z,16.75
2022-09-15T12:48:24.335Z,16.74
2022-09-15T12:51:10.847Z,16.76
2022-09-15T12:54:00.014Z,16.79
2022-09-15T12:56:51.721Z,17.07
2022-09-15T12:59:36.495Z,17.16
2022-09-15T13:02:44.503Z,17.09
2022-09-15T13:05:41.193Z,17.06
2022-09-15T13:08:29.229Z,17.16
2022-09-15T13:11:23.255Z,17.29
2022-09-15T13:14:19.170Z,17.55
2022-09-15T13:17:17.890Z,17.82
2022-09-15T13:20:14.940Z,18.15
2022-09-15T13:23:03.007Z,18.46
2022-09-15T13:25:49.503Z,18.68
2022-09-15T13:28:36.701Z,18.84
2022-09-15T13:31:29.142Z,19.46
2022-09-15T13:38:16.922Z,19.34
2022-09-15T13:41:18.679Z,19.32
2022-09-15T13:44:24.666Z,19.06
2022-09-15T13:47:25.828Z,18.60
2022-09-15T13:50:21.157Z,18.37
2022-09-15T13:53:43.250Z,18.11
2022-09-15T13:56:40.764Z,17.89
2022-09-15T13:59:30.550Z,17.74
2022-09-15T14:02:16.241Z,17.57
2022-09-15T14:05:01.242Z,17.40
2022-09-15T14:07:59.195Z,17.32
2022-09-15T14:10:52.191Z,17.29
2022-09-15T14:13:42.961Z,17.33
2022-09-15T14:16:36.615Z,17.38
2022-09-15T14:19:27.713Z,17.49
2022-09-15T14:22:27.656Z,17.61
2022-09-15T14:25:16.487Z,17.71
2022-09-15T14:28:01.761Z,17.73
2022-09-15T14:30:47.878Z,17.68
2022-09-15T14:33:38.174Z,17.56
2022-09-15T14:36:31.350Z,17.44
2022-09-15T14:39:22.974Z,17.33
2022-09-15T14:42:21.948Z,17.28
2022-09-15T14:48:18.160Z,17.15
2022-09-15T14:51:12.764Z,17.09
2022-09-15T14:53:59.814Z,17.06
2022-09-15T14:56:45.726Z,17.09
2022-09-15T14:59:43.754Z,17.14
2022-09-15T15:02:57.746Z,17.19
2022-09-15T15:05:47.173Z,17.19
2022-09-15T15:08:51.793Z,17.21
2022-09-15T15:11:39.535Z,17.14
2022-09-15T15:14:25.510Z,17.07
2022-09-15T15:17:29.699Z,16.98
2022-09-15T15:20:29.706Z,16.91
2022-09-15T15:23:19.753Z,16.90
2022-09-15T15:26:37.478Z,16.81
2022-09-15T15:29:54.571Z,16.78
2022-09-15T15:32:42.447Z,16.77
2022-09-15T15:35:28.655Z,16.79
2022-09-15T15:38:19.783Z,16.80
2022-09-15T15:41:05.844Z,16.74
2022-09-15T15:44:07.268Z,16.67
2022-09-15T15:47:01.874Z,16.59
2022-09-15T15:50:11.761Z,16.51
2022-09-15T15:52:52.354Z,16.40
2022-09-15T15:55:40.147Z,16.35
2022-09-15T15:58:24.861Z,16.30
2022-09-15T16:01:11.213Z,16.23
2022-09-15T16:03:56.390Z,16.17
2022-09-15T16:06:42.937Z,16.12
2022-09-15T16:09:27.814Z,16.08
2022-09-15T16:12:14.901Z,16.07
2022-09-15T16:14:59.529Z,16.02
2022-09-15T16:17:46.851Z,15.98
2022-09-15T16:20:31.969Z,15.95
2022-09-15T16:23:19.161Z,15.92
2022-09-15T16:26:04.941Z,15.88
2022-09-15T16:28:50.730Z,15.86
2022-09-15T16:31:36.113Z,15.82
2022-09-15T16:34:21.926Z,15.78
2022-09-15T16:37:06.982Z,15.74
2022-09-15T16:39:52.008Z,15.70
2022-09-15T16:42:37.084Z,15.67
2022-09-15T16:45:28.268Z,15.61
2022-09-15T16:48:13.270Z,15.56
2022-09-15T16:54:02.776Z,15.52
2022-09-15T16:56:47.781Z,15.48
2022-09-15T16:59:32.707Z,15.42
2022-09-15T17:02:18.363Z,15.42
2022-09-15T17:05:15.637Z,15.40
2022-09-15T17:08:00.944Z,15.36
2022-09-15T17:10:47.007Z,15.35
2022-09-15T17:13:33.433Z,15.32
2022-09-15T17:16:19.088Z,15.25
2022-09-15T17:19:03.795Z,15.22
2022-09-15T17:21:49.689Z,15.20
2022-09-15T17:24:34.526Z,15.15
2022-09-15T17:27:19.320Z,15.08
2022-09-15T17:30:05.122Z,14.98
2022-09-15T17:32:50.904Z,14.84
2022-09-15T17:35:36.396Z,14.69
2022-09-15T17:38:21.889Z,14.55
2022-09-15T17:41:18.033Z,14.45
2022-09-15T17:44:02.717Z,14.39
2022-09-15T17:46:47.798Z,14.40
2022-09-15T17:49:32.597Z,14.42
2022-09-15T17:52:17.856Z,14.44
2022-09-15T17:55:12.408Z,14.41
2022-09-15T17:57:59.626Z,14.39
2022-09-15T18:00:45.806Z,14.37
2022-09-15T18:03:36.363Z,14.38
2022-09-15T18:06:20.905Z,14.42
2022-09-15T18:09:06.054Z,14.43
2022-09-15T18:11:50.857Z,14.43
2022-09-15T18:14:35.983Z,14.44
2022-09-15T18:17:20.970Z,14.45
2022-09-15T18:20:06.008Z,14.43
2022-09-15T18:22:51.551Z,14.44
2022-09-15T18:25:36.236Z,14.43
2022-09-15T18:28:21.236Z,14.41
2022-09-15T18:31:06.738Z,14.40
2022-09-15T18:33:51.772Z,14.39
2022-09-15T18:36:36.797Z,14.37
2022-09-15T18:39:21.805Z,14.37
2022-09-15T18:42:06.918Z,14.35
2022-09-15T18:44:51.922Z,14.37
2022-09-15T18:47:37.165Z,14.35
2022-09-15T18:50:23.339Z,14.34
2022-09-15T18:53:08.918Z,14.31
2022-09-15T18:55:53.714Z,14.29
2022-09-15T18:58:38.774Z,14.26
2022-09-15T19:01:23.738Z,14.24
2022-09-15T19:04:08.740Z,14.21
2022-09-15T19:06:53.540Z,14.18
2022-09-15T19:09:39.248Z,14.16
2022-09-15T19:12:24.489Z,14.14
2022-09-15T19:15:11.701Z,14.10
2022-09-15T19:17:56.447Z,14.07
2022-09-15T19:20:41.446Z,14.06
2022-09-15T19:23:26.193Z,14.02
2022-09-15T19:26:14.794Z,14.00
2022-09-15T19:28:59.764Z,14.01
2022-09-15T19:31:44.770Z,13.99
2022-09-15T19:34:29.897Z,13.98
2022-09-15T19:37:18.810Z,13.95
2022-09-15T19:40:07.834Z,13.94
2022-09-15T19:42:52.967Z,13.92
2022-09-15T19:45:41.750Z,13.90
2022-09-15T19:48:27.207Z,13.87
2022-09-15T19:51:13.977Z,13.85
2022-09-15T19:53:59.300Z,13.84
2022-09-15T19:56:44.055Z,13.85
2022-09-15T19:59:31.718Z,13.86
2022-09-15T20:02:17.030Z,13.87
2022-09-15T20:05:01.899Z,13.85
2022-09-15T20:07:47.507Z,13.89
2022-09-15T20:10:32.224Z,13.87
2022-09-15T20:13:17.993Z,13.86
2022-09-15T20:16:03.371Z,13.83
2022-09-15T20:18:50.125Z,13.79
2022-09-15T20:21:52.522Z,13.77
2022-09-15T20:24:37.510Z,13.75
2022-09-15T20:27:22.486Z,13.72
2022-09-15T20:30:07.936Z,13.70
2022-09-15T20:32:52.847Z,13.68
2022-09-15T20:35:37.817Z,13.64
2022-09-15T20:38:22.877Z,13.65
2022-09-15T20:41:09.634Z,13.62
2022-09-15T20:43:54.650Z,13.62
2022-09-15T20:46:40.242Z,13.59
2022-09-15T20:49:25.263Z,13.54
2022-09-15T20:52:10.756Z,13.50
2022-09-15T20:54:55.672Z,13.46
2022-09-15T20:57:40.423Z,13.43
2022-09-15T21:00:27.775Z,13.39
2022-09-15T21:03:15.383Z,13.33
2022-09-15T21:06:06.030Z,13.29
2022-09-15T21:08:52.378Z,13.27
2022-09-15T21:11:37.116Z,13.25
2022-09-15T21:14:22.037Z,13.18
2022-09-15T21:17:07.123Z,13.14
2022-09-15T21:19:51.908Z,13.12
2022-09-15T21:22:37.341Z,13.11
2022-09-15T21:25:22.811Z,13.09
2022-09-15T21:28:07.819Z,13.08
2022-09-15T21:30:53.382Z,13.07
2022-09-15T21:33:38.722Z,13.08
2022-09-15T21:36:29.012Z,13.09
2022-09-15T21:39:13.953Z,13.10
2022-09-15T21:41:58.807Z,13.11
2022-09-15T21:44:44.017Z,13.11
2022-09-15T21:47:29.507Z,13.10
2022-09-15T21:50:14.223Z,13.10
2022-09-15T21:52:59.031Z,13.10
2022-09-15T21:55:44.265Z,13.08
2022-09-15T21:58:35.414Z,13.09
2022-09-15T22:01:24.646Z,13.08
2022-09-15T22:04:10.395Z,13.08
2022-09-15T22:06:55.319Z,13.08
2022-09-15T22:09:40.194Z,13.09
2022-09-15T22:12:25.291Z,13.07
2022-09-15T22:15:10.356Z,13.05
2022-09-15T22:17:55.351Z,13.07
2022-09-15T22:20:40.312Z,13.06
2022-09-15T22:23:25.364Z,13.04
2022-09-15T22:26:22.195Z,13.00
2022-09-15T22:29:07.341Z,12.98
2022-09-15T22:31:52.317Z,12.97
2022-09-15T22:34:37.266Z,12.96
2022-09-15T22:37:26.878Z,12.97
2022-09-15T22:40:11.867Z,12.93
2022-09-15T22:42:57.229Z,12.93
2022-09-15T22:45:42.126Z,12.91
2022-09-15T22:48:27.371Z,12.90
2022-09-15T22:51:12.929Z,12.91
2022-09-15T22:53:57.802Z,12.90
2022-09-15T22:56:42.699Z,12.91
2022-09-15T22:59:27.412Z,12.89
2022-09-15T23:02:12.508Z,12.88
2022-09-15T23:04:57.507Z,12.84
2022-09-15T23:07:42.481Z,12.83
2022-09-15T23:10:27.914Z,12.84
2022-09-15T23:13:13.033Z,12.82
2022-09-15T23:15:58.083Z,12.81
2022-09-15T23:18:43.134Z,12.80
2022-09-15T23:21:28.088Z,12.79
2022-09-15T23:24:13.726Z,12.77
2022-09-15T23:26:58.685Z,12.75
2022-09-15T23:29:43.456Z,12.75
2022-09-15T23:32:28.130Z,12.75
2022-09-15T23:35:13.212Z,12.72
2022-09-15T23:37:58.716Z,12.74
2022-09-15T23:40:44.407Z,12.72
2022-09-15T23:43:30.028Z,12.70
2022-09-15T23:46:15.649Z,12.71
2022-09-15T23:49:00.666Z,12.71
2022-09-15T23:51:45.680Z,12.72
2022-09-15T23:54:30.632Z,12.72
2022-09-15T23:57:15.587Z,12.73
